createdAt,value
2022-11-05T00:00:02.861Z,0
2022-11-05T00:05:02.929Z,0
2022-11-05T00:10:02.725Z,0
2022-11-05T00:15:02.769Z,0
2022-11-05T00:20:02.781Z,0
2022-11-05T00:25:02.840Z,0
2022-11-05T00:30:03.036Z,0
2022-11-05T00:35:03.006Z,0
2022-11-05T00:40:02.968Z,0
2022-11-05T00:45:02.821Z,0
2022-11-05T00:50:02.785Z,0
2022-11-05T00:55:02.791Z,0
2022-11-05T01:00:02.783Z,0
2022-11-05T01:05:03.069Z,0
2022-11-05T01:10:02.991Z,0
2022-11-05T01:15:02.939Z,0
2022-11-05T01:20:02.848Z,0
2022-11-05T01:25:02.870Z,0
2022-11-05T01:30:02.832Z,0
2022-11-05T01:35:02.853Z,0
2022-11-05T01:40:03.004Z,0
2022-11-05T01:45:03.021Z,0
2022-11-05T01:50:03.301Z,0
2022-11-05T01:55:02.913Z,0
2022-11-05T02:00:02.836Z,0
2022-11-05T02:05:02.911Z,0
2022-11-05T02:10:02.963Z,0
2022-11-05T02:15:03.025Z,0
2022-11-05T02:20:02.864Z,0
2022-11-05T02:25:02.914Z,0
2022-11-05T02:30:02.889Z,0
2022-11-05T02:35:03.095Z,0
2022-11-05T02:40:03.016Z,0
2022-11-05T02:45:03.030Z,0
2022-11-05T02:50:03.161Z,0
2022-11-05T02:55:02.962Z,0
2022-11-05T03:00:02.921Z,0
2022-11-05T03:05:02.956Z,0
2022-11-05T03:10:03.059Z,0
2022-11-05T03:15:03.121Z,0
2022-11-05T03:20:02.909Z,0
2022-11-05T03:25:02.946Z,0
2022-11-05T03:30:03.017Z,0
2022-11-05T03:35:02.993Z,0
2022-11-05T03:40:02.908Z,0
2022-11-05T03:45:03.061Z,0
2022-11-05T03:50:04.597Z,0
2022-11-05T03:55:02.945Z,0
2022-11-05T04:00:02.945Z,0
2022-11-05T04:05:03.049Z,0
2022-11-05T04:10:02.966Z,0
2022-11-05T04:15:03.064Z,0
2022-11-05T04:20:03.221Z,0
2022-11-05T04:25:02.983Z,0
2022-11-05T04:30:02.995Z,0
2022-11-05T04:35:03.049Z,0
2022-11-05T04:40:02.945Z,0
2022-11-05T04:45:02.989Z,0
2022-11-05T04:50:03.245Z,0
2022-11-05T04:55:03.194Z,0
2022-11-05T05:00:03.038Z,0
2022-11-05T05:05:03.043Z,0
2022-11-05T05:10:03.017Z,0
2022-11-05T05:15:03.059Z,0
2022-11-05T05:20:03.121Z,0
2022-11-05T05:25:03.183Z,0
2022-11-05T05:30:03.167Z,0
2022-11-05T05:35:03.083Z,0
2022-11-05T05:40:03.128Z,0
2022-11-05T05:45:03.005Z,0
2022-11-05T05:50:03.079Z,0
2022-11-05T05:55:03.114Z,0
2022-11-05T06:00:03.176Z,0
2022-11-05T06:05:03.403Z,0
2022-11-05T06:10:03.052Z,0
2022-11-05T06:15:03.135Z,0
2022-11-05T06:20:03.182Z,0
2022-11-05T06:25:03.273Z,0
2022-11-05T06:30:03.365Z,0
2022-11-05T06:35:03.282Z,0
2022-11-05T06:40:03.257Z,0.0533015873015873
2022-11-05T06:45:03.128Z,0.39320634920634917
2022-11-05T06:50:03.115Z,0.41568253968253976
2022-11-05T06:55:03.259Z,0.7387407407407408
2022-11-05T07:00:07.436Z,0.9875026455026457
2022-11-05T07:05:03.242Z,1.2304232804232806
2022-11-05T07:10:03.281Z,1.783650793650794
2022-11-05T07:15:03.111Z,3.3711640211640215
2022-11-05T07:20:03.203Z,6.285544973544973
2022-11-05T07:25:03.127Z,8.119820105820105
2022-11-05T07:30:03.153Z,5.478719576719577
2022-11-05T07:35:03.177Z,12.00930158730159
2022-11-05T07:40:03.327Z,12.498539682539683
2022-11-05T07:45:03.314Z,8.333915343915345
2022-11-05T07:50:03.289Z,4.351037037037037
2022-11-05T07:55:03.172Z,3.0173862433862437
2022-11-05T08:00:03.201Z,3.9385608465608466
2022-11-05T08:05:03.178Z,4.440518518518519
2022-11-05T08:10:03.569Z,4.306148148148148
2022-11-05T08:15:03.272Z,4.996687830687831
2022-11-05T08:20:03.355Z,10.425142857142857
2022-11-05T08:25:06.742Z,11.777555555555557
2022-11-05T08:30:03.253Z,31.558444444444444
2022-11-05T08:35:03.294Z,39.645788359788355
2022-11-05T08:40:03.487Z,35.494095238095234
2022-11-05T08:45:03.180Z,34.96778835978836
2022-11-05T08:50:03.269Z,43.80488888888889
2022-11-05T08:55:03.336Z,44.83266666666667
2022-11-05T09:00:03.360Z,46.13248677248677
2022-11-05T09:05:03.272Z,47.29801058201058
2022-11-05T09:10:03.250Z,48.22809523809524
2022-11-05T09:15:03.232Z,49.40025396825398
2022-11-05T09:20:03.266Z,50.138412698412694
2022-11-05T09:25:03.264Z,51.86772486772486
2022-11-05T09:30:03.456Z,52.51783068783069
2022-11-05T09:35:03.275Z,53.78031746031746
2022-11-05T09:40:03.245Z,54.79443386243387
2022-11-05T09:45:03.382Z,50.61193650793652
2022-11-05T09:50:03.310Z,55.09921693121693
2022-11-05T09:55:03.272Z,57.43056084656085
2022-11-05T10:00:03.345Z,54.615597883597886
2022-11-05T10:05:08.200Z,57.91375661375662
2022-11-05T10:10:03.284Z,59.19266666666667
2022-11-05T10:15:03.265Z,56.04664550264551
2022-11-05T10:20:03.345Z,60.32021164021164
2022-11-05T10:25:03.282Z,60.296634920634915
2022-11-05T10:30:03.345Z,60.68461375661376
2022-11-05T10:35:03.451Z,62.06584126984127
2022-11-05T10:40:03.512Z,63.71925925925927
2022-11-05T10:45:03.316Z,62.99491005291006
2022-11-05T10:50:03.329Z,63.136994708994706
2022-11-05T10:55:03.337Z,62.167280423280424
2022-11-05T11:00:03.321Z,64.36924867724868
2022-11-05T11:05:03.379Z,55.17655026455026
2022-11-05T11:10:03.674Z,35.61318518518519
2022-11-05T11:15:03.286Z,42.622878306878306
2022-11-05T11:20:03.406Z,31.41900529100529
2022-11-05T11:25:03.313Z,44.61150264550265
2022-11-05T11:30:03.730Z,50.60660317460318
2022-11-05T11:35:03.390Z,51.35789417989418
2022-11-05T11:40:03.488Z,29.79339682539683
2022-11-05T11:45:03.537Z,42.168211640211645
2022-11-05T11:50:03.406Z,37.884433862433866
2022-11-05T11:55:03.396Z,43.93973544973545
2022-11-05T12:00:09.587Z,53.18176719576719
2022-11-05T12:05:03.372Z,55.007026455026455
2022-11-05T12:10:03.549Z,46.816476190476195
2022-11-05T12:15:03.517Z,54.04878306878307
2022-11-05T12:20:03.472Z,60.623724867724874
2022-11-05T12:25:03.422Z,24.294
2022-11-05T12:30:03.404Z,31.927555555555553
2022-11-05T12:35:03.453Z,24.95884656084656
2022-11-05T12:40:03.561Z,38.95103703703704
2022-11-05T12:45:04.615Z,11.967544973544973
2022-11-05T12:50:03.679Z,34.3473544973545
2022-11-05T12:55:03.416Z,15.739915343915346
2022-11-05T13:00:03.500Z,16.999291005291006
2022-11-05T13:40:45.737Z,9.12794708994709
2022-11-05T13:45:03.502Z,7.500148148148149
2022-11-05T13:50:03.646Z,5.736656084656086
2022-11-05T13:55:03.645Z,6.3108994708994715
2022-11-05T14:00:03.587Z,10.242550264550266
2022-11-05T14:05:05.144Z,7.622095238095238
2022-11-05T14:10:03.553Z,12.106698412698414
2022-11-05T14:15:03.488Z,6.830084656084656
2022-11-05T14:20:03.688Z,3.5036296296296303
2022-11-05T14:25:04.709Z,2.253058201058201
2022-11-05T14:30:03.846Z,1.8728465608465612
2022-11-05T14:35:03.562Z,1.8214708994708995
2022-11-05T14:40:03.793Z,1.3457671957671957
2022-11-05T14:45:03.592Z,0.8907724867724868
2022-11-05T14:50:03.558Z,0.6015343915343916
2022-11-05T14:55:03.800Z,0.3471111111111111
2022-11-05T15:00:03.556Z,0.39201058201058203
2022-11-05T15:05:03.818Z,0.3170899470899471
2022-11-05T15:10:09.010Z,0.2532063492063492
2022-11-05T15:15:03.543Z,0.20427513227513228
2022-11-05T15:20:03.957Z,0
2022-11-05T15:25:03.583Z,0
2022-11-05T15:30:03.634Z,0
2022-11-05T15:35:03.594Z,0
2022-11-05T15:40:03.767Z,0
2022-11-05T15:45:05.035Z,0
2022-11-05T15:50:03.686Z,0
2022-11-05T15:55:03.840Z,0
2022-11-05T16:00:03.682Z,0
2022-11-05T16:05:03.631Z,0
2022-11-05T16:10:07.347Z,0
2022-11-05T16:15:03.705Z,0
2022-11-05T16:20:03.912Z,0
2022-11-05T16:25:03.805Z,0
2022-11-05T16:30:03.626Z,0
2022-11-05T16:35:03.707Z,0
2022-11-05T16:40:03.945Z,0
2022-11-05T16:45:03.696Z,0
2022-11-05T16:50:03.897Z,0
2022-11-05T16:55:04.066Z,0
2022-11-05T17:00:04.809Z,0
2022-11-05T17:05:03.831Z,0
2022-11-05T17:10:03.606Z,0
2022-11-05T17:15:03.855Z,0
2022-11-05T17:20:03.653Z,0
2022-11-05T17:25:04.036Z,0
2022-11-05T17:30:04.374Z,0
2022-11-05T17:35:03.836Z,0
2022-11-05T17:40:03.885Z,0
2022-11-05T17:45:04.020Z,0
2022-11-05T17:50:03.726Z,0
2022-11-05T17:55:03.710Z,0
2022-11-05T18:00:03.695Z,0
2022-11-05T18:05:03.707Z,0
2022-11-05T18:10:03.705Z,0
2022-11-05T18:15:04.148Z,0
2022-11-05T18:20:03.932Z,0
2022-11-05T18:25:03.914Z,0
2022-11-05T18:30:03.979Z,0
2022-11-05T18:35:03.695Z,0
2022-11-05T18:40:03.932Z,0
2022-11-05T18:45:03.891Z,0
2022-11-05T18:50:03.776Z,0
2022-11-05T18:55:03.959Z,0
2022-11-05T19:00:03.907Z,0
2022-11-05T19:05:29.271Z,0
2022-11-05T19:10:03.981Z,0
2022-11-05T19:15:04.393Z,0
2022-11-05T19:20:01.969Z,0
2022-11-05T19:25:01.459Z,0
2022-11-05T19:30:01.489Z,0
2022-11-05T19:35:01.538Z,0
2022-11-05T19:40:01.692Z,0
2022-11-05T19:45:16.998Z,0
2022-11-05T19:50:01.481Z,0
2022-11-05T19:55:01.594Z,0
2022-11-05T20:00:01.484Z,0
2022-11-05T20:05:01.543Z,0
2022-11-05T20:10:01.544Z,0
2022-11-05T20:15:01.539Z,0
2022-11-05T20:20:01.535Z,0
2022-11-05T20:25:01.766Z,0
2022-11-05T20:30:03.456Z,0
2022-11-05T20:35:01.534Z,0
2022-11-05T20:40:01.603Z,0
2022-11-05T20:45:01.575Z,0
2022-11-05T20:50:01.491Z,0
2022-11-05T20:55:01.540Z,0
2022-11-05T21:00:01.560Z,0
2022-11-05T21:05:01.767Z,0
2022-11-05T21:10:01.783Z,0
2022-11-05T21:15:01.764Z,0
2022-11-05T21:20:01.573Z,0
2022-11-05T21:25:01.654Z,0
2022-11-05T21:30:01.610Z,0
2022-11-05T21:35:01.589Z,0
2022-11-05T21:40:01.616Z,0
2022-11-05T21:45:02.436Z,0
2022-11-05T21:50:01.793Z,0
2022-11-05T21:55:01.768Z,0
2022-11-05T22:00:01.995Z,0
2022-11-05T22:05:01.591Z,0
2022-11-05T22:10:01.699Z,0
2022-11-05T22:15:03.085Z,0
2022-11-05T22:20:01.703Z,0
2022-11-05T22:25:01.651Z,0
2022-11-05T22:30:01.834Z,0
2022-11-05T22:35:01.771Z,0
2022-11-05T22:40:01.680Z,0
2022-11-05T22:45:01.802Z,0
2022-11-05T22:50:01.645Z,0
2022-11-05T22:55:01.678Z,0
2022-11-05T23:00:01.680Z,0
2022-11-05T23:05:01.648Z,0
2022-11-05T23:10:01.869Z,0
2022-11-05T23:15:01.984Z,0
2022-11-05T23:20:01.667Z,0
2022-11-05T23:25:01.674Z,0
2022-11-05T23:30:01.692Z,0
2022-11-05T23:35:01.715Z,0
2022-11-05T23:40:01.682Z,0
2022-11-05T23:45:02.013Z,0
2022-11-05T23:50:01.824Z,0
2022-11-05T23:55:01.765Z,0
